BCY25U EGLC-LFPO
Flight info
| Callsign | BCY25U |
|---|---|
| Flight time | 0h 58m |
| Altitude | 27000 |
| Route | SFD UY47 BENBO UL612 RESMI |
| Aircraft | RJ85/M-SDFGIRWY/LB1 |
Departure
| Time | 2026-04-30 09:08 |
|---|---|
| Airport | London City Airport (EGLC) |
Arrival
| Time | 2026-04-30 10:06 |
|---|---|
| Airport | Paris-Orly Airport (LFPO) |
| Time | Latitude | Longitude | Altitude | Speed | Heading |
|---|---|---|---|---|---|
| 2026-04-30 08:48 | 51.50436 | 0.04823 | 25 ft | 0 kts | 313° |
| 2026-04-30 09:06 | 51.50442 | 0.04813 | 27 ft | 3 kts | 313° |
| 2026-04-30 09:06 | 51.50463 | 0.04753 | 25 ft | 9 kts | 287° |
| 2026-04-30 09:06 | 51.50473 | 0.04618 | 25 ft | 15 kts | 274° |
| 2026-04-30 09:07 | 51.50507 | 0.04442 | 25 ft | 19 kts | 340° |
| 2026-04-30 09:07 | 51.50557 | 0.04498 | 25 ft | 0 kts | 95° |
| 2026-04-30 09:07 | 51.50557 | 0.04505 | 25 ft | 10 kts | 95° |
| 2026-04-30 09:07 | 51.50539 | 0.05034 | 25 ft | 83 kts | 93° |
| 2026-04-30 09:08 | 51.50502 | 0.06234 | 236 ft | 116 kts | 90° |
| 2026-04-30 09:08 | 51.50453 | 0.07505 | 966 ft | 113 kts | 92° |
| 2026-04-30 09:08 | 51.50426 | 0.08770 | 1635 ft | 114 kts | 96° |
| 2026-04-30 09:08 | 51.50776 | 0.09934 | 2140 ft | 137 kts | 45° |
| 2026-04-30 09:09 | 51.51597 | 0.10914 | 2374 ft | 159 kts | 50° |
| 2026-04-30 09:09 | 51.52485 | 0.12223 | 2605 ft | 187 kts | 51° |
| 2026-04-30 09:09 | 51.53499 | 0.13719 | 3046 ft | 209 kts | 50° |
| 2026-04-30 09:09 | 51.54627 | 0.15353 | 3493 ft | 227 kts | 49° |
| 2026-04-30 09:10 | 51.55618 | 0.17350 | 3941 ft | 231 kts | 76° |
| 2026-04-30 09:10 | 51.55950 | 0.19897 | 4503 ft | 238 kts | 85° |
| 2026-04-30 09:10 | 51.56250 | 0.22562 | 5291 ft | 244 kts | 84° |
| 2026-04-30 09:10 | 51.56622 | 0.25234 | 6129 ft | 253 kts | 75° |
| 2026-04-30 09:11 | 51.57318 | 0.27883 | 6990 ft | 260 kts | 70° |
| 2026-04-30 09:11 | 51.58077 | 0.30546 | 7887 ft | 264 kts | 70° |
| 2026-04-30 09:11 | 51.58868 | 0.33255 | 8840 ft | 270 kts | 69° |
| 2026-04-30 09:11 | 51.59692 | 0.36000 | 9755 ft | 275 kts | 68° |
| 2026-04-30 09:12 | 51.60511 | 0.38780 | 10504 ft | 283 kts | 73° |
| 2026-04-30 09:12 | 51.60718 | 0.41941 | 10917 ft | 291 kts | 100° |
| 2026-04-30 09:12 | 51.60345 | 0.45232 | 11296 ft | 306 kts | 102° |
| 2026-04-30 09:12 | 51.59942 | 0.48676 | 11602 ft | 319 kts | 102° |
| 2026-04-30 09:13 | 51.59515 | 0.52222 | 12033 ft | 325 kts | 103° |
| 2026-04-30 09:13 | 51.58922 | 0.55683 | 12489 ft | 326 kts | 117° |
| 2026-04-30 09:13 | 51.57450 | 0.58431 | 12936 ft | 329 kts | 145° |
| 2026-04-30 09:13 | 51.55311 | 0.59771 | 13394 ft | 335 kts | 168° |
| 2026-04-30 09:14 | 51.52972 | 0.60205 | 13835 ft | 339 kts | 172° |
| 2026-04-30 09:14 | 51.50610 | 0.60590 | 14268 ft | 342 kts | 172° |
| 2026-04-30 09:14 | 51.48232 | 0.60986 | 14667 ft | 344 kts | 171° |
| 2026-04-30 09:14 | 51.45843 | 0.61416 | 15071 ft | 346 kts | 171° |
| 2026-04-30 09:15 | 51.43449 | 0.61910 | 15488 ft | 347 kts | 170° |
| 2026-04-30 09:15 | 51.41051 | 0.62483 | 15880 ft | 348 kts | 167° |
| 2026-04-30 09:15 | 51.38735 | 0.63436 | 16239 ft | 349 kts | 161° |
| 2026-04-30 09:15 | 51.36419 | 0.64644 | 16625 ft | 350 kts | 160° |
| 2026-04-30 09:16 | 51.34101 | 0.65912 | 17025 ft | 352 kts | 159° |
| 2026-04-30 09:16 | 51.31775 | 0.67206 | 17415 ft | 354 kts | 159° |
| 2026-04-30 09:16 | 51.29430 | 0.68484 | 17799 ft | 356 kts | 159° |
| 2026-04-30 09:16 | 51.27070 | 0.69766 | 18188 ft | 358 kts | 159° |
| 2026-04-30 09:17 | 51.24699 | 0.71032 | 18567 ft | 360 kts | 159° |
| 2026-04-30 09:17 | 51.22352 | 0.72472 | 18919 ft | 361 kts | 156° |
| 2026-04-30 09:17 | 51.20061 | 0.74031 | 19256 ft | 363 kts | 155° |
| 2026-04-30 09:17 | 51.17744 | 0.75672 | 19600 ft | 365 kts | 154° |
| 2026-04-30 09:18 | 51.15412 | 0.77313 | 19939 ft | 367 kts | 154° |
| 2026-04-30 09:18 | 51.13067 | 0.78956 | 20266 ft | 368 kts | 154° |
| 2026-04-30 09:18 | 51.10710 | 0.80604 | 20601 ft | 370 kts | 154° |
| 2026-04-30 09:18 | 51.08371 | 0.82233 | 20932 ft | 372 kts | 154° |
| 2026-04-30 09:19 | 51.05994 | 0.83859 | 21251 ft | 374 kts | 155° |
| 2026-04-30 09:19 | 51.03572 | 0.85447 | 21562 ft | 376 kts | 159° |
| 2026-04-30 09:19 | 51.00953 | 0.86011 | 21835 ft | 387 kts | 182° |
| 2026-04-30 09:19 | 50.98340 | 0.84852 | 22132 ft | 396 kts | 201° |
| 2026-04-30 09:20 | 50.95932 | 0.82744 | 22413 ft | 402 kts | 209° |
| 2026-04-30 09:20 | 50.93634 | 0.80157 | 22697 ft | 406 kts | 214° |
| 2026-04-30 09:20 | 50.91414 | 0.77338 | 22975 ft | 409 kts | 216° |
| 2026-04-30 09:20 | 50.89229 | 0.74427 | 23247 ft | 411 kts | 216° |
| 2026-04-30 09:21 | 50.87031 | 0.71494 | 23527 ft | 413 kts | 216° |
| 2026-04-30 09:21 | 50.84812 | 0.68570 | 23785 ft | 415 kts | 216° |
| 2026-04-30 09:21 | 50.82576 | 0.65672 | 24024 ft | 416 kts | 215° |
| 2026-04-30 09:21 | 50.80339 | 0.62826 | 24261 ft | 417 kts | 214° |
| 2026-04-30 09:22 | 50.78069 | 0.59948 | 24497 ft | 418 kts | 214° |
| 2026-04-30 09:22 | 50.75799 | 0.57072 | 24722 ft | 419 kts | 214° |
| 2026-04-30 09:22 | 50.73517 | 0.54180 | 24933 ft | 420 kts | 214° |
| 2026-04-30 09:22 | 50.71233 | 0.51285 | 25206 ft | 420 kts | 214° |
| 2026-04-30 09:23 | 50.68944 | 0.48425 | 25497 ft | 418 kts | 213° |
| 2026-04-30 09:23 | 50.66685 | 0.45621 | 25782 ft | 417 kts | 214° |
| 2026-04-30 09:23 | 50.64417 | 0.42755 | 26057 ft | 417 kts | 214° |
| 2026-04-30 09:23 | 50.62149 | 0.39908 | 26344 ft | 415 kts | 213° |
| 2026-04-30 09:24 | 50.59874 | 0.37119 | 26614 ft | 413 kts | 211° |
| 2026-04-30 09:24 | 50.57486 | 0.34625 | 26886 ft | 408 kts | 205° |
| 2026-04-30 09:24 | 50.55023 | 0.32522 | 27143 ft | 405 kts | 201° |
| 2026-04-30 09:24 | 50.52485 | 0.30604 | 27412 ft | 403 kts | 200° |
| 2026-04-30 09:25 | 50.49932 | 0.28792 | 27669 ft | 401 kts | 199° |
| 2026-04-30 09:25 | 50.47363 | 0.26995 | 27716 ft | 406 kts | 199° |
| 2026-04-30 09:25 | 50.44780 | 0.25171 | 27971 ft | 403 kts | 199° |
| 2026-04-30 09:25 | 50.43101 | 0.23979 | 28093 ft | 398 kts | 199° |
| 2026-04-30 09:26 | 50.37176 | 0.19684 | 28212 ft | 408 kts | 200° |
| 2026-04-30 09:26 | 50.32880 | 0.16528 | 28207 ft | 410 kts | 200° |
| 2026-04-30 09:27 | 50.27691 | 0.12806 | 28205 ft | 410 kts | 200° |
| 2026-04-30 09:27 | 50.22503 | 0.09032 | 28203 ft | 411 kts | 200° |
| 2026-04-30 09:28 | 50.17318 | 0.05315 | 28201 ft | 412 kts | 200° |
| 2026-04-30 09:28 | 50.12045 | 0.01950 | 28199 ft | 403 kts | 184° |
| 2026-04-30 09:29 | 50.06498 | 0.01860 | 28203 ft | 397 kts | 171° |
| 2026-04-30 09:29 | 50.01079 | 0.03407 | 28192 ft | 395 kts | 163° |
| 2026-04-30 09:30 | 49.95786 | 0.05577 | 28179 ft | 395 kts | 162° |
| 2026-04-30 09:30 | 49.90456 | 0.07786 | 28170 ft | 396 kts | 162° |
| 2026-04-30 09:31 | 49.85101 | 0.09917 | 28162 ft | 397 kts | 163° |
| 2026-04-30 09:31 | 49.79721 | 0.12036 | 28150 ft | 398 kts | 163° |
| 2026-04-30 09:32 | 49.74379 | 0.14133 | 28139 ft | 399 kts | 163° |
| 2026-04-30 09:32 | 49.68985 | 0.16221 | 28134 ft | 399 kts | 163° |
| 2026-04-30 09:33 | 49.63585 | 0.18329 | 28130 ft | 400 kts | 163° |
| 2026-04-30 09:33 | 49.58201 | 0.20508 | 28133 ft | 400 kts | 163° |
| 2026-04-30 09:34 | 49.52833 | 0.22639 | 28129 ft | 400 kts | 163° |
| 2026-04-30 09:34 | 49.47430 | 0.24818 | 28153 ft | 402 kts | 163° |
| 2026-04-30 09:35 | 49.42000 | 0.26970 | 28130 ft | 402 kts | 163° |
| 2026-04-30 09:35 | 49.36574 | 0.29127 | 28129 ft | 403 kts | 163° |
| 2026-04-30 09:36 | 49.31163 | 0.31282 | 28129 ft | 404 kts | 163° |
| 2026-04-30 09:36 | 49.25738 | 0.33626 | 28133 ft | 404 kts | 161° |
| 2026-04-30 09:37 | 49.20310 | 0.35983 | 28136 ft | 405 kts | 162° |
| 2026-04-30 09:37 | 49.14862 | 0.38316 | 28133 ft | 406 kts | 162° |
| 2026-04-30 09:38 | 49.09445 | 0.40629 | 28136 ft | 407 kts | 162° |
| 2026-04-30 09:38 | 49.03965 | 0.42917 | 28138 ft | 408 kts | 163° |
| 2026-04-30 09:39 | 48.98457 | 0.45151 | 28128 ft | 408 kts | 162° |
| 2026-04-30 09:39 | 48.92991 | 0.47403 | 28128 ft | 409 kts | 163° |
| 2026-04-30 09:40 | 48.90233 | 0.48516 | 27854 ft | 413 kts | 163° |
| 2026-04-30 09:40 | 48.87472 | 0.49653 | 27122 ft | 408 kts | 162° |
| 2026-04-30 09:40 | 48.84745 | 0.50787 | 26405 ft | 403 kts | 162° |
| 2026-04-30 09:40 | 48.82045 | 0.51902 | 25710 ft | 399 kts | 162° |
| 2026-04-30 09:41 | 48.79371 | 0.52996 | 25035 ft | 395 kts | 162° |
| 2026-04-30 09:41 | 48.76723 | 0.54065 | 24379 ft | 391 kts | 162° |
| 2026-04-30 09:41 | 48.74133 | 0.55092 | 23745 ft | 387 kts | 162° |
| 2026-04-30 09:41 | 48.71543 | 0.56135 | 22997 ft | 382 kts | 161° |
| 2026-04-30 09:42 | 48.68984 | 0.57184 | 22252 ft | 378 kts | 162° |
| 2026-04-30 09:42 | 48.66440 | 0.58197 | 21530 ft | 374 kts | 162° |
| 2026-04-30 09:42 | 48.63961 | 0.59170 | 20889 ft | 369 kts | 162° |
| 2026-04-30 09:42 | 48.61502 | 0.60147 | 20340 ft | 362 kts | 161° |
| 2026-04-30 09:43 | 48.59082 | 0.61132 | 19791 ft | 356 kts | 162° |
| 2026-04-30 09:43 | 48.56697 | 0.62078 | 19268 ft | 351 kts | 162° |
| 2026-04-30 09:43 | 48.54349 | 0.63009 | 18754 ft | 347 kts | 162° |
| 2026-04-30 09:43 | 48.52033 | 0.63943 | 18239 ft | 342 kts | 162° |
| 2026-04-30 09:44 | 48.49735 | 0.64851 | 17650 ft | 339 kts | 162° |
| 2026-04-30 09:44 | 48.47465 | 0.65741 | 17085 ft | 336 kts | 162° |
| 2026-04-30 09:44 | 48.45236 | 0.66623 | 16539 ft | 334 kts | 162° |
| 2026-04-30 09:44 | 48.42995 | 0.67513 | 16019 ft | 331 kts | 162° |
| 2026-04-30 09:45 | 48.40771 | 0.68401 | 15582 ft | 330 kts | 162° |
| 2026-04-30 09:45 | 48.38553 | 0.69295 | 15162 ft | 328 kts | 162° |
| 2026-04-30 09:45 | 48.36347 | 0.70189 | 14736 ft | 327 kts | 162° |
| 2026-04-30 09:45 | 48.34152 | 0.71067 | 14326 ft | 326 kts | 163° |
| 2026-04-30 09:46 | 48.31953 | 0.71917 | 13904 ft | 325 kts | 163° |
| 2026-04-30 09:46 | 48.29763 | 0.72766 | 13440 ft | 323 kts | 163° |
| 2026-04-30 09:46 | 48.27593 | 0.73616 | 13232 ft | 321 kts | 163° |
| 2026-04-30 09:46 | 48.25545 | 0.74751 | 13140 ft | 318 kts | 146° |
| 2026-04-30 09:47 | 48.24057 | 0.77156 | 13146 ft | 318 kts | 118° |
| 2026-04-30 09:47 | 48.23184 | 0.80227 | 13148 ft | 319 kts | 112° |
| 2026-04-30 09:47 | 48.22375 | 0.83327 | 13136 ft | 320 kts | 112° |
| 2026-04-30 09:47 | 48.21572 | 0.86396 | 13147 ft | 319 kts | 112° |
| 2026-04-30 09:48 | 48.20751 | 0.89498 | 13136 ft | 319 kts | 113° |
| 2026-04-30 09:48 | 48.19904 | 0.92582 | 13134 ft | 319 kts | 114° |
| 2026-04-30 09:48 | 48.19026 | 0.95640 | 13130 ft | 319 kts | 115° |
| 2026-04-30 09:48 | 48.18128 | 0.98684 | 13112 ft | 319 kts | 115° |
| 2026-04-30 09:49 | 48.17223 | 1.01736 | 13135 ft | 319 kts | 115° |
| 2026-04-30 09:49 | 48.16325 | 1.04754 | 13136 ft | 320 kts | 115° |
| 2026-04-30 09:49 | 48.15386 | 1.07826 | 13128 ft | 320 kts | 115° |
| 2026-04-30 09:49 | 48.14475 | 1.10831 | 13127 ft | 320 kts | 115° |
| 2026-04-30 09:50 | 48.13556 | 1.13877 | 13122 ft | 321 kts | 115° |
| 2026-04-30 09:50 | 48.12635 | 1.16925 | 13128 ft | 321 kts | 115° |
| 2026-04-30 09:50 | 48.11717 | 1.19965 | 13116 ft | 321 kts | 115° |
| 2026-04-30 09:50 | 48.10798 | 1.23012 | 13125 ft | 321 kts | 115° |
| 2026-04-30 09:51 | 48.09883 | 1.26027 | 13116 ft | 321 kts | 115° |
| 2026-04-30 09:51 | 48.08955 | 1.29084 | 13123 ft | 321 kts | 115° |
| 2026-04-30 09:51 | 48.08027 | 1.32126 | 13133 ft | 322 kts | 115° |
| 2026-04-30 09:51 | 48.07135 | 1.35204 | 13125 ft | 322 kts | 108° |
| 2026-04-30 09:52 | 48.06980 | 1.38547 | 13025 ft | 329 kts | 81° |
| 2026-04-30 09:52 | 48.07897 | 1.41686 | 12601 ft | 335 kts | 55° |
| 2026-04-30 09:52 | 48.09673 | 1.43944 | 12308 ft | 339 kts | 32° |
| 2026-04-30 09:52 | 48.11724 | 1.45513 | 12152 ft | 329 kts | 30° |
| 2026-04-30 09:53 | 48.13785 | 1.46919 | 11747 ft | 324 kts | 21° |
| 2026-04-30 09:53 | 48.15856 | 1.48141 | 11301 ft | 315 kts | 34° |
| 2026-04-30 09:53 | 48.17628 | 1.50002 | 10922 ft | 307 kts | 40° |
| 2026-04-30 09:53 | 48.19335 | 1.51886 | 10598 ft | 303 kts | 39° |
| 2026-04-30 09:54 | 48.21038 | 1.53724 | 10357 ft | 298 kts | 39° |
| 2026-04-30 09:54 | 48.22690 | 1.55488 | 10190 ft | 292 kts | 39° |
| 2026-04-30 09:54 | 48.24361 | 1.57245 | 10144 ft | 292 kts | 38° |
| 2026-04-30 09:54 | 48.26041 | 1.58989 | 10142 ft | 293 kts | 38° |
| 2026-04-30 09:55 | 48.27714 | 1.60715 | 10139 ft | 292 kts | 38° |
| 2026-04-30 09:55 | 48.29401 | 1.62442 | 10121 ft | 292 kts | 37° |
| 2026-04-30 09:55 | 48.31068 | 1.64133 | 10139 ft | 293 kts | 37° |
| 2026-04-30 09:55 | 48.32753 | 1.65851 | 10144 ft | 292 kts | 37° |
| 2026-04-30 09:56 | 48.34442 | 1.67562 | 10149 ft | 293 kts | 37° |
| 2026-04-30 09:56 | 48.36132 | 1.69281 | 10166 ft | 292 kts | 37° |
| 2026-04-30 09:56 | 48.37826 | 1.71005 | 10146 ft | 293 kts | 38° |
| 2026-04-30 09:56 | 48.39511 | 1.72722 | 10152 ft | 293 kts | 38° |
| 2026-04-30 09:57 | 48.41198 | 1.74448 | 10151 ft | 293 kts | 38° |
| 2026-04-30 09:57 | 48.42882 | 1.76180 | 10042 ft | 294 kts | 37° |
| 2026-04-30 09:57 | 48.44581 | 1.77923 | 9563 ft | 297 kts | 37° |
| 2026-04-30 09:57 | 48.46283 | 1.79664 | 9031 ft | 300 kts | 37° |
| 2026-04-30 09:58 | 48.48014 | 1.81435 | 8519 ft | 299 kts | 38° |
| 2026-04-30 09:58 | 48.49737 | 1.83194 | 7991 ft | 299 kts | 38° |
| 2026-04-30 09:58 | 48.51455 | 1.84958 | 7484 ft | 298 kts | 37° |
| 2026-04-30 09:58 | 48.53157 | 1.86725 | 6990 ft | 294 kts | 37° |
| 2026-04-30 09:59 | 48.56410 | 1.90076 | 5996 ft | 272 kts | 39° |
| 2026-04-30 09:59 | 48.58564 | 1.94294 | 5270 ft | 241 kts | 62° |
| 2026-04-30 10:00 | 48.60175 | 1.98426 | 4887 ft | 221 kts | 65° |
| 2026-04-30 10:00 | 48.60916 | 2.00442 | 4737 ft | 217 kts | 66° |
| 2026-04-30 10:01 | 48.62325 | 2.04405 | 4375 ft | 214 kts | 67° |
| 2026-04-30 10:01 | 48.63032 | 2.06414 | 4125 ft | 214 kts | 66° |
| 2026-04-30 10:01 | 48.63701 | 2.08286 | 3779 ft | 193 kts | 67° |
| 2026-04-30 10:02 | 48.64939 | 2.11757 | 3367 ft | 179 kts | 67° |
| 2026-04-30 10:02 | 48.65517 | 2.13377 | 3132 ft | 171 kts | 69° |
| 2026-04-30 10:02 | 48.66068 | 2.14949 | 2827 ft | 167 kts | 69° |
| 2026-04-30 10:02 | 48.66597 | 2.16461 | 2640 ft | 159 kts | 69° |
| 2026-04-30 10:03 | 48.67112 | 2.17927 | 2391 ft | 157 kts | 69° |
| 2026-04-30 10:03 | 48.67614 | 2.19379 | 2221 ft | 152 kts | 67° |
| 2026-04-30 10:03 | 48.68110 | 2.20732 | 2030 ft | 143 kts | 68° |
| 2026-04-30 10:03 | 48.68568 | 2.21987 | 1794 ft | 130 kts | 67° |
| 2026-04-30 10:04 | 48.68981 | 2.23170 | 1593 ft | 125 kts | 71° |
| 2026-04-30 10:04 | 48.69382 | 2.24347 | 1479 ft | 128 kts | 66° |
| 2026-04-30 10:04 | 48.69816 | 2.25541 | 1334 ft | 133 kts | 64° |
| 2026-04-30 10:04 | 48.70264 | 2.26762 | 1119 ft | 133 kts | 65° |
| 2026-04-30 10:05 | 48.70689 | 2.28000 | 939 ft | 132 kts | 65° |
| 2026-04-30 10:05 | 48.71119 | 2.29223 | 772 ft | 131 kts | 64° |
| 2026-04-30 10:05 | 48.71553 | 2.30429 | 584 ft | 130 kts | 64° |
| 2026-04-30 10:05 | 48.71968 | 2.31603 | 408 ft | 124 kts | 65° |
| 2026-04-30 10:06 | 48.72360 | 2.32715 | 304 ft | 110 kts | 62° |
| 2026-04-30 10:06 | 48.72577 | 2.33330 | 297 ft | 90 kts | 61° |
| 2026-04-30 10:06 | 48.72905 | 2.34256 | 298 ft | 63 kts | 62° |
| 2026-04-30 10:06 | 48.73088 | 2.34772 | 299 ft | 49 kts | 62° |
| 2026-04-30 10:07 | 48.73187 | 2.35055 | 298 ft | 42 kts | 62° |
| 2026-04-30 10:07 | 48.73276 | 2.35377 | 296 ft | 25 kts | 102° |
| 2026-04-30 10:07 | 48.73182 | 2.35511 | 295 ft | 15 kts | 147° |
| 2026-04-30 10:07 | 48.73102 | 2.35591 | 295 ft | 13 kts | 147° |
| 2026-04-30 10:08 | 48.73069 | 2.35683 | 299 ft | 10 kts | 60° |
| 2026-04-30 10:08 | 48.73063 | 2.35755 | 298 ft | 8 kts | 135° |
| 2026-04-30 10:08 | 48.73021 | 2.35822 | 298 ft | 8 kts | 133° |
| 2026-04-30 10:08 | 48.73015 | 2.35830 | 296 ft | 0 kts | 133° |
| 2026-04-30 10:14 | 48.73017 | 2.35828 | 296 ft | 3 kts | 133° |
| 2026-04-30 10:14 | 48.73042 | 2.35786 | 298 ft | 3 kts | 132° |
| 2026-04-30 10:15 | 48.73057 | 2.35769 | 299 ft | 3 kts | 155° |
| 2026-04-30 10:15 | 48.73074 | 2.35762 | 296 ft | 3 kts | 180° |
| 2026-04-30 10:15 | 48.73092 | 2.35767 | 298 ft | 3 kts | 204° |
| 2026-04-30 10:15 | 48.73107 | 2.35783 | 300 ft | 3 kts | 229° |
| 2026-04-30 10:16 | 48.73112 | 2.35792 | 302 ft | 0 kts | 237° |
| 2026-04-30 10:18 | 48.73110 | 2.35787 | 299 ft | 2 kts | 237° |
| 2026-04-30 10:18 | 48.73093 | 2.35740 | 299 ft | 9 kts | 242° |
| 2026-04-30 10:18 | 48.73050 | 2.35632 | 302 ft | 15 kts | 238° |
| 2026-04-30 10:19 | 48.72834 | 2.35567 | 304 ft | 18 kts | 165° |
| 2026-04-30 10:19 | 48.72715 | 2.35617 | 305 ft | 18 kts | 164° |
| 2026-04-30 10:19 | 48.72585 | 2.35671 | 302 ft | 21 kts | 164° |
| 2026-04-30 10:19 | 48.72444 | 2.35647 | 303 ft | 23 kts | 210° |
| 2026-04-30 10:20 | 48.72292 | 2.35614 | 305 ft | 21 kts | 189° |
| 2026-04-30 10:20 | 48.72021 | 2.35769 | 305 ft | 25 kts | 121° |
| 2026-04-30 10:20 | 48.71967 | 2.36001 | 304 ft | 24 kts | 75° |
| 2026-04-30 10:21 | 48.72037 | 2.36378 | 304 ft | 66 kts | 75° |
| 2026-04-30 10:21 | 48.72221 | 2.37402 | 331 ft | 129 kts | 78° |
| 2026-04-30 10:21 | 48.72478 | 2.38709 | 962 ft | 127 kts | 74° |
| 2026-04-30 10:21 | 48.72735 | 2.39952 | 1891 ft | 121 kts | 76° |
| 2026-04-30 10:22 | 48.72943 | 2.41162 | 2693 ft | 121 kts | 82° |
| 2026-04-30 10:22 | 48.73170 | 2.42500 | 3166 ft | 145 kts | 80° |
| 2026-04-30 10:22 | 48.73453 | 2.44123 | 3625 ft | 172 kts | 79° |
| 2026-04-30 10:22 | 48.73790 | 2.45958 | 4322 ft | 189 kts | 78° |
| 2026-04-30 10:23 | 48.74048 | 2.47987 | 5104 ft | 202 kts | 86° |
| 2026-04-30 10:23 | 48.74164 | 2.50159 | 5973 ft | 209 kts | 88° |
| 2026-04-30 10:23 | 48.74257 | 2.52385 | 6892 ft | 213 kts | 88° |
| 2026-04-30 10:23 | 48.74336 | 2.54650 | 7805 ft | 216 kts | 92° |
| 2026-04-30 10:24 | 48.73886 | 2.56790 | 8719 ft | 220 kts | 130° |
| 2026-04-30 10:24 | 48.72578 | 2.57953 | 9646 ft | 231 kts | 167° |
| 2026-04-30 10:24 | 48.70957 | 2.57639 | 10457 ft | 249 kts | 202° |
| 2026-04-30 10:24 | 48.69592 | 2.55851 | 11064 ft | 275 kts | 234° |
| 2026-04-30 10:25 | 48.68893 | 2.53027 | 11579 ft | 299 kts | 257° |
| 2026-04-30 10:25 | 48.68570 | 2.49814 | 12046 ft | 318 kts | 261° |
| 2026-04-30 10:25 | 48.68140 | 2.46447 | 12444 ft | 334 kts | 252° |
| 2026-04-30 10:25 | 48.67297 | 2.43097 | 12767 ft | 347 kts | 242° |
| 2026-04-30 10:26 | 48.66225 | 2.39805 | 13035 ft | 360 kts | 244° |
| 2026-04-30 10:26 | 48.65266 | 2.36256 | 13423 ft | 366 kts | 247° |
| 2026-04-30 10:26 | 48.64674 | 2.32492 | 13860 ft | 373 kts | 268° |
| 2026-04-30 10:26 | 48.65113 | 2.28616 | 14316 ft | 376 kts | 289° |
| 2026-04-30 10:27 | 48.66114 | 2.24944 | 14738 ft | 379 kts | 295° |
| 2026-04-30 10:27 | 48.67310 | 2.21368 | 15168 ft | 382 kts | 298° |
| 2026-04-30 10:27 | 48.68605 | 2.17839 | 15600 ft | 384 kts | 300° |
| 2026-04-30 10:27 | 48.69925 | 2.14350 | 16012 ft | 387 kts | 300° |
| 2026-04-30 10:28 | 48.71283 | 2.10815 | 16439 ft | 389 kts | 300° |
| 2026-04-30 10:28 | 48.72636 | 2.07245 | 16894 ft | 391 kts | 300° |
| 2026-04-30 10:28 | 48.73981 | 2.03625 | 17289 ft | 394 kts | 299° |
| 2026-04-30 10:28 | 48.75315 | 1.99984 | 17683 ft | 397 kts | 299° |
| 2026-04-30 10:29 | 48.76635 | 1.96353 | 18112 ft | 399 kts | 299° |
| 2026-04-30 10:29 | 48.77985 | 1.92652 | 18502 ft | 402 kts | 299° |
| 2026-04-30 10:29 | 48.79342 | 1.88930 | 18889 ft | 403 kts | 301° |
| 2026-04-30 10:29 | 48.81132 | 1.85682 | 19222 ft | 404 kts | 323° |
| 2026-04-30 10:30 | 48.83605 | 1.83722 | 19586 ft | 401 kts | 346° |
| 2026-04-30 10:30 | 48.86355 | 1.83258 | 19942 ft | 398 kts | 5° |
| 2026-04-30 10:30 | 48.89124 | 1.83629 | 20274 ft | 400 kts | 8° |
| 2026-04-30 10:30 | 48.91900 | 1.84079 | 20653 ft | 401 kts | 11° |
| 2026-04-30 10:31 | 48.94588 | 1.84968 | 21011 ft | 401 kts | 19° |
| 2026-04-30 10:31 | 48.97244 | 1.86304 | 21366 ft | 402 kts | 23° |
| 2026-04-30 10:31 | 48.99865 | 1.87855 | 21699 ft | 403 kts | 25° |
| 2026-04-30 10:31 | 49.02466 | 1.89505 | 22056 ft | 405 kts | 26° |
| 2026-04-30 10:32 | 49.05069 | 1.91180 | 22383 ft | 407 kts | 26° |
| 2026-04-30 10:32 | 49.07656 | 1.92847 | 22707 ft | 409 kts | 25° |
| 2026-04-30 10:32 | 49.10301 | 1.94518 | 23029 ft | 411 kts | 25° |
| 2026-04-30 10:32 | 49.12957 | 1.96176 | 23358 ft | 413 kts | 25° |
| 2026-04-30 10:33 | 49.15635 | 1.97844 | 23678 ft | 415 kts | 25° |
| 2026-04-30 10:33 | 49.18322 | 1.99516 | 23966 ft | 417 kts | 25° |
| 2026-04-30 10:33 | 49.21013 | 2.01184 | 24242 ft | 418 kts | 25° |
| 2026-04-30 10:33 | 49.23672 | 2.02834 | 24515 ft | 419 kts | 24° |
| 2026-04-30 10:34 | 49.26383 | 2.04513 | 24758 ft | 420 kts | 24° |
| 2026-04-30 10:34 | 49.29103 | 2.06197 | 25061 ft | 421 kts | 24° |
| 2026-04-30 10:34 | 49.31818 | 2.07888 | 25387 ft | 420 kts | 25° |
| 2026-04-30 10:34 | 49.34521 | 2.09575 | 25728 ft | 419 kts | 24° |
| 2026-04-30 10:35 | 49.37224 | 2.11255 | 26015 ft | 416 kts | 25° |